sensor_id;sensor_type;location;lat;lon;timestamp;P1;durP1;ratioP1;P2;durP2;ratioP2
51236;SDS011;37312;47.550;18.818;2022-08-18T00:00:14;5.10;;;3.78;;
51236;SDS011;37312;47.550;18.818;2022-08-18T00:02:41;4.10;;;3.70;;
51236;SDS011;37312;47.550;18.818;2022-08-18T00:05:08;4.22;;;3.70;;
51236;SDS011;37312;47.550;18.818;2022-08-18T00:07:37;3.95;;;3.55;;
51236;SDS011;37312;47.550;18.818;2022-08-18T00:10:04;4.57;;;4.28;;
51236;SDS011;37312;47.550;18.818;2022-08-18T00:12:32;4.68;;;4.37;;
51236;SDS011;37312;47.550;18.818;2022-08-18T00:15:07;14.73;;;3.45;;
51236;SDS011;37312;47.550;18.818;2022-08-18T00:17:35;4.32;;;3.92;;
51236;SDS011;37312;47.550;18.818;2022-08-18T00:20:06;4.43;;;4.03;;
51236;SDS011;37312;47.550;18.818;2022-08-18T00:22:37;5.40;;;4.35;;
51236;SDS011;37312;47.550;18.818;2022-08-18T00:25:04;4.65;;;3.80;;
51236;SDS011;37312;47.550;18.818;2022-08-18T00:27:34;3.83;;;3.53;;
51236;SDS011;37312;47.550;18.818;2022-08-18T00:30:05;4.03;;;3.53;;
51236;SDS011;37312;47.550;18.818;2022-08-18T00:32:35;7.15;;;3.80;;
51236;SDS011;37312;47.550;18.818;2022-08-18T00:35:04;4.57;;;4.20;;
51236;SDS011;37312;47.550;18.818;2022-08-18T00:37:42;3.62;;;3.40;;
51236;SDS011;37312;47.550;18.818;2022-08-18T00:40:10;3.03;;;2.83;;
51236;SDS011;37312;47.550;18.818;2022-08-18T00:42:41;3.67;;;3.37;;
51236;SDS011;37312;47.550;18.818;2022-08-18T00:45:19;5.18;;;4.43;;
51236;SDS011;37312;47.550;18.818;2022-08-18T00:47:51;4.78;;;4.37;;
51236;SDS011;37312;47.550;18.818;2022-08-18T00:50:22;10.82;;;4.00;;
51236;SDS011;37312;47.550;18.818;2022-08-18T00:55:48;6.50;;;5.87;;
51236;SDS011;37312;47.550;18.818;2022-08-18T00:58:17;5.55;;;5.05;;
51236;SDS011;37312;47.550;18.818;2022-08-18T01:00:48;6.32;;;5.75;;
51236;SDS011;37312;47.550;18.818;2022-08-18T01:03:16;7.75;;;6.62;;
51236;SDS011;37312;47.550;18.818;2022-08-18T01:05:47;7.05;;;6.47;;
51236;SDS011;37312;47.550;18.818;2022-08-18T01:08:21;6.78;;;6.18;;
51236;SDS011;37312;47.550;18.818;2022-08-18T01:10:47;5.50;;;5.10;;
51236;SDS011;37312;47.550;18.818;2022-08-18T01:13:14;6.53;;;5.93;;
51236;SDS011;37312;47.550;18.818;2022-08-18T01:15:40;11.15;;;4.93;;
51236;SDS011;37312;47.550;18.818;2022-08-18T01:18:09;5.37;;;4.97;;
51236;SDS011;37312;47.550;18.818;2022-08-18T01:23:57;6.62;;;6.10;;
51236;SDS011;37312;47.550;18.818;2022-08-18T01:26:26;5.50;;;5.10;;
51236;SDS011;37312;47.550;18.818;2022-08-18T01:28:54;7.03;;;6.00;;
51236;SDS011;37312;47.550;18.818;2022-08-18T01:31:37;8.55;;;5.40;;
51236;SDS011;37312;47.550;18.818;2022-08-18T01:34:06;6.37;;;5.45;;
51236;SDS011;37312;47.550;18.818;2022-08-18T01:36:34;6.20;;;5.70;;
51236;SDS011;37312;47.550;18.818;2022-08-18T01:39:03;6.07;;;5.47;;
51236;SDS011;37312;47.550;18.818;2022-08-18T01:41:31;7.30;;;6.37;;
51236;SDS011;37312;47.550;18.818;2022-08-18T01:43:57;6.43;;;5.85;;
51236;SDS011;37312;47.550;18.818;2022-08-18T01:46:24;5.80;;;5.25;;
51236;SDS011;37312;47.550;18.818;2022-08-18T01:48:51;6.72;;;6.18;;
51236;SDS011;37312;47.550;18.818;2022-08-18T01:51:16;7.05;;;6.35;;
51236;SDS011;37312;47.550;18.818;2022-08-18T01:53:44;7.45;;;5.85;;
51236;SDS011;37312;47.550;18.818;2022-08-18T01:56:10;6.62;;;6.03;;
51236;SDS011;37312;47.550;18.818;2022-08-18T01:58:37;8.15;;;6.60;;
51236;SDS011;37312;47.550;18.818;2022-08-18T02:01:04;6.87;;;6.32;;
51236;SDS011;37312;47.550;18.818;2022-08-18T02:03:35;7.00;;;6.12;;
51236;SDS011;37312;47.550;18.818;2022-08-18T02:06:04;6.07;;;5.57;;
51236;SDS011;37312;47.550;18.818;2022-08-18T02:08:34;6.18;;;5.68;;
51236;SDS011;37312;47.550;18.818;2022-08-18T02:11:01;7.07;;;6.25;;
51236;SDS011;37312;47.550;18.818;2022-08-18T02:13:28;7.72;;;6.75;;
51236;SDS011;37312;47.550;18.818;2022-08-18T02:15:54;6.10;;;5.62;;
51236;SDS011;37312;47.550;18.818;2022-08-18T02:18:25;6.18;;;4.90;;
51236;SDS011;37312;47.550;18.818;2022-08-18T02:20:55;6.75;;;6.12;;
51236;SDS011;37312;47.550;18.818;2022-08-18T02:23:22;9.23;;;6.07;;
51236;SDS011;37312;47.550;18.818;2022-08-18T02:25:49;6.80;;;6.30;;
51236;SDS011;37312;47.550;18.818;2022-08-18T02:28:15;5.85;;;5.35;;
51236;SDS011;37312;47.550;18.818;2022-08-18T02:30:41;7.47;;;6.62;;
51236;SDS011;37312;47.550;18.818;2022-08-18T02:33:08;10.40;;;7.85;;
51236;SDS011;37312;47.550;18.818;2022-08-18T02:35:36;8.02;;;6.95;;
51236;SDS011;37312;47.550;18.818;2022-08-18T02:38:03;7.95;;;6.97;;
51236;SDS011;37312;47.550;18.818;2022-08-18T02:40:30;7.57;;;6.97;;
51236;SDS011;37312;47.550;18.818;2022-08-18T02:43:09;7.12;;;6.53;;
51236;SDS011;37312;47.550;18.818;2022-08-18T02:45:35;7.37;;;6.68;;
51236;SDS011;37312;47.550;18.818;2022-08-18T02:48:02;8.48;;;7.78;;
51236;SDS011;37312;47.550;18.818;2022-08-18T02:50:28;8.07;;;7.28;;
51236;SDS011;37312;47.550;18.818;2022-08-18T02:52:54;6.80;;;6.07;;
51236;SDS011;37312;47.550;18.818;2022-08-18T02:55:20;8.73;;;8.13;;
51236;SDS011;37312;47.550;18.818;2022-08-18T02:57:47;8.30;;;7.53;;
51236;SDS011;37312;47.550;18.818;2022-08-18T03:00:15;10.10;;;9.15;;
51236;SDS011;37312;47.550;18.818;2022-08-18T03:02:49;8.57;;;7.87;;
51236;SDS011;37312;47.550;18.818;2022-08-18T03:05:16;11.43;;;7.75;;
51236;SDS011;37312;47.550;18.818;2022-08-18T03:07:43;7.93;;;7.12;;
51236;SDS011;37312;47.550;18.818;2022-08-18T03:10:10;9.15;;;8.25;;
51236;SDS011;37312;47.550;18.818;2022-08-18T03:12:36;11.12;;;8.93;;
51236;SDS011;37312;47.550;18.818;2022-08-18T03:15:02;7.80;;;7.10;;
51236;SDS011;37312;47.550;18.818;2022-08-18T03:17:29;8.70;;;7.85;;
51236;SDS011;37312;47.550;18.818;2022-08-18T03:19:56;9.05;;;8.25;;
51236;SDS011;37312;47.550;18.818;2022-08-18T03:22:22;8.43;;;7.78;;
51236;SDS011;37312;47.550;18.818;2022-08-18T03:24:50;10.60;;;8.88;;
51236;SDS011;37312;47.550;18.818;2022-08-18T03:27:16;9.02;;;8.32;;
51236;SDS011;37312;47.550;18.818;2022-08-18T03:29:42;8.50;;;7.60;;
51236;SDS011;37312;47.550;18.818;2022-08-18T03:32:07;8.23;;;7.53;;
51236;SDS011;37312;47.550;18.818;2022-08-18T03:34:33;10.15;;;9.05;;
51236;SDS011;37312;47.550;18.818;2022-08-18T03:36:59;9.02;;;8.13;;
51236;SDS011;37312;47.550;18.818;2022-08-18T03:39:26;8.27;;;7.50;;
51236;SDS011;37312;47.550;18.818;2022-08-18T03:43:33;14.50;;;8.88;;
51236;SDS011;37312;47.550;18.818;2022-08-18T03:46:00;11.98;;;10.88;;
51236;SDS011;37312;47.550;18.818;2022-08-18T03:48:27;12.23;;;11.15;;
51236;SDS011;37312;47.550;18.818;2022-08-18T03:50:54;11.70;;;10.52;;
51236;SDS011;37312;47.550;18.818;2022-08-18T03:53:20;11.40;;;10.40;;
51236;SDS011;37312;47.550;18.818;2022-08-18T03:55:46;14.48;;;11.43;;
51236;SDS011;37312;47.550;18.818;2022-08-18T03:58:12;11.82;;;10.55;;
51236;SDS011;37312;47.550;18.818;2022-08-18T04:00:39;12.40;;;11.18;;
51236;SDS011;37312;47.550;18.818;2022-08-18T04:03:06;12.90;;;11.65;;
51236;SDS011;37312;47.550;18.818;2022-08-18T04:05:32;11.70;;;10.63;;
51236;SDS011;37312;47.550;18.818;2022-08-18T04:07:59;14.70;;;10.02;;
51236;SDS011;37312;47.550;18.818;2022-08-18T04:10:27;11.80;;;8.20;;
51236;SDS011;37312;47.550;18.818;2022-08-18T04:12:53;15.65;;;10.60;;
51236;SDS011;37312;47.550;18.818;2022-08-18T04:15:19;12.30;;;11.30;;
51236;SDS011;37312;47.550;18.818;2022-08-18T04:17:45;14.45;;;11.48;;
51236;SDS011;37312;47.550;18.818;2022-08-18T04:20:11;12.77;;;10.70;;
51236;SDS011;37312;47.550;18.818;2022-08-18T04:22:38;12.23;;;11.12;;
51236;SDS011;37312;47.550;18.818;2022-08-18T04:25:08;14.15;;;11.77;;
51236;SDS011;37312;47.550;18.818;2022-08-18T04:27:34;11.75;;;10.57;;
51236;SDS011;37312;47.550;18.818;2022-08-18T04:30:04;11.27;;;10.20;;
51236;SDS011;37312;47.550;18.818;2022-08-18T04:32:31;11.43;;;10.45;;
51236;SDS011;37312;47.550;18.818;2022-08-18T04:34:57;12.07;;;10.98;;
51236;SDS011;37312;47.550;18.818;2022-08-18T04:37:23;12.07;;;11.02;;
51236;SDS011;37312;47.550;18.818;2022-08-18T04:39:49;10.82;;;9.93;;
51236;SDS011;37312;47.550;18.818;2022-08-18T04:42:14;11.63;;;9.50;;
51236;SDS011;37312;47.550;18.818;2022-08-18T04:44:41;10.68;;;9.85;;
51236;SDS011;37312;47.550;18.818;2022-08-18T04:47:07;10.63;;;9.68;;
51236;SDS011;37312;47.550;18.818;2022-08-18T04:49:34;8.50;;;7.75;;
51236;SDS011;37312;47.550;18.818;2022-08-18T04:52:00;9.65;;;8.73;;
51236;SDS011;37312;47.550;18.818;2022-08-18T04:54:49;9.85;;;8.95;;
51236;SDS011;37312;47.550;18.818;2022-08-18T04:57:16;10.35;;;9.25;;
51236;SDS011;37312;47.550;18.818;2022-08-18T04:59:44;9.50;;;8.70;;
51236;SDS011;37312;47.550;18.818;2022-08-18T05:02:12;19.75;;;8.95;;
51236;SDS011;37312;47.550;18.818;2022-08-18T05:04:40;8.80;;;7.97;;
51236;SDS011;37312;47.550;18.818;2022-08-18T05:07:08;10.20;;;9.05;;
51236;SDS011;37312;47.550;18.818;2022-08-18T05:09:36;10.77;;;9.07;;
51236;SDS011;37312;47.550;18.818;2022-08-18T05:12:04;8.98;;;8.18;;
51236;SDS011;37312;47.550;18.818;2022-08-18T05:14:31;9.73;;;8.32;;
51236;SDS011;37312;47.550;18.818;2022-08-18T05:16:58;10.45;;;8.95;;
51236;SDS011;37312;47.550;18.818;2022-08-18T05:19:26;8.93;;;8.13;;
51236;SDS011;37312;47.550;18.818;2022-08-18T05:21:53;10.75;;;8.40;;
51236;SDS011;37312;47.550;18.818;2022-08-18T05:24:20;11.68;;;9.15;;
51236;SDS011;37312;47.550;18.818;2022-08-18T05:26:48;9.48;;;8.65;;
51236;SDS011;37312;47.550;18.818;2022-08-18T05:29:14;14.32;;;9.50;;
51236;SDS011;37312;47.550;18.818;2022-08-18T05:31:47;9.18;;;8.15;;
51236;SDS011;37312;47.550;18.818;2022-08-18T05:34:14;11.12;;;8.65;;
51236;SDS011;37312;47.550;18.818;2022-08-18T05:41:54;13.07;;;8.05;;
51236;SDS011;37312;47.550;18.818;2022-08-18T05:44:25;10.27;;;8.45;;
51236;SDS011;37312;47.550;18.818;2022-08-18T05:46:58;7.32;;;6.72;;
51236;SDS011;37312;47.550;18.818;2022-08-18T05:49:29;8.40;;;7.43;;
51236;SDS011;37312;47.550;18.818;2022-08-18T05:52:04;12.37;;;8.38;;
51236;SDS011;37312;47.550;18.818;2022-08-18T05:54:38;7.37;;;6.80;;
51236;SDS011;37312;47.550;18.818;2022-08-18T05:57:32;8.55;;;7.40;;
51236;SDS011;37312;47.550;18.818;2022-08-18T06:00:04;8.70;;;7.60;;
51236;SDS011;37312;47.550;18.818;2022-08-18T06:10:48;18.10;;;8.40;;
51236;SDS011;37312;47.550;18.818;2022-08-18T06:13:15;10.90;;;7.32;;
51236;SDS011;37312;47.550;18.818;2022-08-18T06:16:03;7.75;;;7.12;;
51236;SDS011;37312;47.550;18.818;2022-08-18T06:27:26;8.15;;;7.55;;
51236;SDS011;37312;47.550;18.818;2022-08-18T06:30:20;6.85;;;6.30;;
51236;SDS011;37312;47.550;18.818;2022-08-18T06:33:01;8.90;;;7.97;;
51236;SDS011;37312;47.550;18.818;2022-08-18T06:41:17;9.68;;;8.38;;
51236;SDS011;37312;47.550;18.818;2022-08-18T06:44:02;16.35;;;8.88;;
51236;SDS011;37312;47.550;18.818;2022-08-18T06:46:36;7.60;;;6.93;;
51236;SDS011;37312;47.550;18.818;2022-08-18T06:49:05;7.85;;;7.32;;
51236;SDS011;37312;47.550;18.818;2022-08-18T06:51:34;6.97;;;6.35;;
51236;SDS011;37312;47.550;18.818;2022-08-18T06:54:03;10.70;;;8.38;;
51236;SDS011;37312;47.550;18.818;2022-08-18T07:02:04;9.27;;;8.38;;
51236;SDS011;37312;47.550;18.818;2022-08-18T07:08:05;6.80;;;6.05;;
51236;SDS011;37312;47.550;18.818;2022-08-18T07:10:44;8.27;;;7.43;;
51236;SDS011;37312;47.550;18.818;2022-08-18T07:13:20;7.97;;;7.30;;
51236;SDS011;37312;47.550;18.818;2022-08-18T07:15:51;8.70;;;7.95;;
51236;SDS011;37312;47.550;18.818;2022-08-18T07:18:24;8.70;;;7.90;;
51236;SDS011;37312;47.550;18.818;2022-08-18T07:20:53;6.97;;;6.28;;
51236;SDS011;37312;47.550;18.818;2022-08-18T07:23:26;7.93;;;7.32;;
51236;SDS011;37312;47.550;18.818;2022-08-18T07:25:58;10.35;;;7.05;;
51236;SDS011;37312;47.550;18.818;2022-08-18T07:33:54;6.87;;;6.28;;
51236;SDS011;37312;47.550;18.818;2022-08-18T07:36:25;8.85;;;6.18;;
51236;SDS011;37312;47.550;18.818;2022-08-18T07:38:55;11.48;;;7.40;;
51236;SDS011;37312;47.550;18.818;2022-08-18T07:41:37;7.37;;;6.87;;
51236;SDS011;37312;47.550;18.818;2022-08-18T07:47:18;7.00;;;6.30;;
51236;SDS011;37312;47.550;18.818;2022-08-18T07:49:47;8.23;;;7.28;;
51236;SDS011;37312;47.550;18.818;2022-08-18T07:52:19;6.97;;;6.35;;
51236;SDS011;37312;47.550;18.818;2022-08-18T07:55:03;29.20;;;9.35;;
51236;SDS011;37312;47.550;18.818;2022-08-18T07:57:44;6.90;;;6.30;;
51236;SDS011;37312;47.550;18.818;2022-08-18T08:08:59;10.50;;;6.22;;
51236;SDS011;37312;47.550;18.818;2022-08-18T08:11:54;11.27;;;6.93;;
51236;SDS011;37312;47.550;18.818;2022-08-18T08:20:29;7.05;;;6.35;;
51236;SDS011;37312;47.550;18.818;2022-08-18T08:23:11;6.20;;;5.80;;
51236;SDS011;37312;47.550;18.818;2022-08-18T08:25:55;7.80;;;7.10;;
51236;SDS011;37312;47.550;18.818;2022-08-18T08:31:32;6.62;;;5.95;;
51236;SDS011;37312;47.550;18.818;2022-08-18T08:34:23;6.65;;;6.05;;
51236;SDS011;37312;47.550;18.818;2022-08-18T08:36:57;7.57;;;6.55;;
51236;SDS011;37312;47.550;18.818;2022-08-18T08:39:33;6.35;;;5.62;;
51236;SDS011;37312;47.550;18.818;2022-08-18T08:42:08;10.55;;;6.20;;
51236;SDS011;37312;47.550;18.818;2022-08-18T08:44:48;5.90;;;5.28;;
51236;SDS011;37312;47.550;18.818;2022-08-18T08:47:24;6.55;;;5.93;;
51236;SDS011;37312;47.550;18.818;2022-08-18T08:49:59;7.05;;;6.35;;
51236;SDS011;37312;47.550;18.818;2022-08-18T08:52:29;6.30;;;5.80;;
51236;SDS011;37312;47.550;18.818;2022-08-18T08:55:02;9.13;;;5.75;;
51236;SDS011;37312;47.550;18.818;2022-08-18T08:57:31;6.50;;;5.82;;
51236;SDS011;37312;47.550;18.818;2022-08-18T09:00:04;6.28;;;5.75;;
51236;SDS011;37312;47.550;18.818;2022-08-18T09:02:36;6.10;;;5.60;;
51236;SDS011;37312;47.550;18.818;2022-08-18T09:05:18;9.18;;;5.80;;
51236;SDS011;37312;47.550;18.818;2022-08-18T09:21:57;4.43;;;4.12;;
51236;SDS011;37312;47.550;18.818;2022-08-18T09:24:30;6.85;;;5.72;;
51236;SDS011;37312;47.550;18.818;2022-08-18T09:29:50;6.68;;;5.90;;
51236;SDS011;37312;47.550;18.818;2022-08-18T09:38:21;9.02;;;5.37;;
51236;SDS011;37312;47.550;18.818;2022-08-18T09:40:49;6.28;;;5.68;;
51236;SDS011;37312;47.550;18.818;2022-08-18T09:43:39;10.68;;;6.40;;
51236;SDS011;37312;47.550;18.818;2022-08-18T09:46:55;6.72;;;6.07;;
51236;SDS011;37312;47.550;18.818;2022-08-18T09:51:47;6.93;;;6.37;;
51236;SDS011;37312;47.550;18.818;2022-08-18T09:54:15;9.20;;;4.82;;
51236;SDS011;37312;47.550;18.818;2022-08-18T10:02:07;6.37;;;5.77;;
51236;SDS011;37312;47.550;18.818;2022-08-18T10:04:41;6.12;;;5.55;;
51236;SDS011;37312;47.550;18.818;2022-08-18T10:07:20;5.43;;;4.95;;
51236;SDS011;37312;47.550;18.818;2022-08-18T10:12:51;5.28;;;4.78;;
51236;SDS011;37312;47.550;18.818;2022-08-18T10:20:58;7.25;;;5.43;;
51236;SDS011;37312;47.550;18.818;2022-08-18T10:34:36;9.38;;;6.25;;
51236;SDS011;37312;47.550;18.818;2022-08-18T10:37:10;5.60;;;5.10;;
51236;SDS011;37312;47.550;18.818;2022-08-18T10:44:30;6.10;;;5.60;;
51236;SDS011;37312;47.550;18.818;2022-08-18T10:47:02;5.30;;;4.80;;
51236;SDS011;37312;47.550;18.818;2022-08-18T10:49:29;4.95;;;4.55;;
51236;SDS011;37312;47.550;18.818;2022-08-18T10:52:01;12.88;;;3.95;;
51236;SDS011;37312;47.550;18.818;2022-08-18T11:00:23;4.22;;;3.83;;
51236;SDS011;37312;47.550;18.818;2022-08-18T11:03:07;7.40;;;4.20;;
51236;SDS011;37312;47.550;18.818;2022-08-18T11:05:34;6.65;;;4.28;;
51236;SDS011;37312;47.550;18.818;2022-08-18T11:08:01;5.32;;;4.07;;
51236;SDS011;37312;47.550;18.818;2022-08-18T11:11:04;4.90;;;4.45;;
51236;SDS011;37312;47.550;18.818;2022-08-18T11:13:38;4.68;;;4.25;;
51236;SDS011;37312;47.550;18.818;2022-08-18T11:18:43;5.87;;;5.40;;
51236;SDS011;37312;47.550;18.818;2022-08-18T11:26:30;9.60;;;4.25;;
51236;SDS011;37312;47.550;18.818;2022-08-18T11:28:56;4.97;;;4.57;;
51236;SDS011;37312;47.550;18.818;2022-08-18T11:31:22;5.57;;;4.70;;
51236;SDS011;37312;47.550;18.818;2022-08-18T11:33:48;9.05;;;5.50;;
51236;SDS011;37312;47.550;18.818;2022-08-18T11:36:15;7.00;;;5.78;;
51236;SDS011;37312;47.550;18.818;2022-08-18T11:38:54;6.20;;;5.65;;
51236;SDS011;37312;47.550;18.818;2022-08-18T11:41:24;6.10;;;3.90;;
51236;SDS011;37312;47.550;18.818;2022-08-18T11:43:55;6.30;;;4.50;;
51236;SDS011;37312;47.550;18.818;2022-08-18T11:46:28;6.22;;;3.87;;
51236;SDS011;37312;47.550;18.818;2022-08-18T11:48:57;8.60;;;5.45;;
51236;SDS011;37312;47.550;18.818;2022-08-18T11:56:32;5.60;;;4.90;;
51236;SDS011;37312;47.550;18.818;2022-08-18T12:06:48;6.90;;;4.47;;
51236;SDS011;37312;47.550;18.818;2022-08-18T12:09:21;4.00;;;3.70;;
51236;SDS011;37312;47.550;18.818;2022-08-18T12:11:54;9.05;;;4.57;;
51236;SDS011;37312;47.550;18.818;2022-08-18T12:14:24;6.12;;;5.53;;
51236;SDS011;37312;47.550;18.818;2022-08-18T12:16:52;5.70;;;4.57;;
51236;SDS011;37312;47.550;18.818;2022-08-18T12:19:19;8.95;;;4.50;;
51236;SDS011;37312;47.550;18.818;2022-08-18T12:24:28;7.47;;;4.80;;
51236;SDS011;37312;47.550;18.818;2022-08-18T12:26:56;7.47;;;4.35;;
51236;SDS011;37312;47.550;18.818;2022-08-18T12:29:23;4.40;;;3.97;;
51236;SDS011;37312;47.550;18.818;2022-08-18T12:31:50;6.82;;;5.43;;
51236;SDS011;37312;47.550;18.818;2022-08-18T12:34:18;6.60;;;4.30;;
51236;SDS011;37312;47.550;18.818;2022-08-18T12:36:49;15.43;;;4.40;;
51236;SDS011;37312;47.550;18.818;2022-08-18T12:39:16;4.65;;;3.40;;
51236;SDS011;37312;47.550;18.818;2022-08-18T12:41:42;4.60;;;4.10;;
51236;SDS011;37312;47.550;18.818;2022-08-18T12:44:08;6.43;;;4.28;;
51236;SDS011;37312;47.550;18.818;2022-08-18T12:46:35;6.25;;;4.00;;
51236;SDS011;37312;47.550;18.818;2022-08-18T12:49:02;6.72;;;4.57;;
51236;SDS011;37312;47.550;18.818;2022-08-18T12:51:29;6.90;;;4.80;;
51236;SDS011;37312;47.550;18.818;2022-08-18T12:53:55;5.03;;;4.62;;
51236;SDS011;37312;47.550;18.818;2022-08-18T12:56:22;5.50;;;4.93;;
51236;SDS011;37312;47.550;18.818;2022-08-18T12:58:51;5.40;;;4.90;;
51236;SDS011;37312;47.550;18.818;2022-08-18T13:01:18;7.97;;;5.28;;
51236;SDS011;37312;47.550;18.818;2022-08-18T13:03:45;4.60;;;4.20;;
51236;SDS011;37312;47.550;18.818;2022-08-18T13:06:12;4.97;;;4.62;;
51236;SDS011;37312;47.550;18.818;2022-08-18T13:08:38;5.53;;;5.03;;
51236;SDS011;37312;47.550;18.818;2022-08-18T13:11:05;5.18;;;4.87;;
51236;SDS011;37312;47.550;18.818;2022-08-18T13:13:36;5.30;;;4.32;;
51236;SDS011;37312;47.550;18.818;2022-08-18T13:16:04;4.68;;;4.28;;
51236;SDS011;37312;47.550;18.818;2022-08-18T13:18:33;7.05;;;4.72;;
51236;SDS011;37312;47.550;18.818;2022-08-18T13:21:03;5.18;;;4.68;;
51236;SDS011;37312;47.550;18.818;2022-08-18T13:23:29;4.70;;;4.30;;
51236;SDS011;37312;47.550;18.818;2022-08-18T13:25:56;6.70;;;4.43;;
51236;SDS011;37312;47.550;18.818;2022-08-18T13:28:25;8.10;;;4.62;;
51236;SDS011;37312;47.550;18.818;2022-08-18T13:30:51;7.70;;;5.07;;
51236;SDS011;37312;47.550;18.818;2022-08-18T13:33:17;4.70;;;4.30;;
51236;SDS011;37312;47.550;18.818;2022-08-18T13:35:44;4.45;;;4.15;;
51236;SDS011;37312;47.550;18.818;2022-08-18T13:38:11;3.70;;;3.40;;
51236;SDS011;37312;47.550;18.818;2022-08-18T13:40:39;10.25;;;4.65;;
51236;SDS011;37312;47.550;18.818;2022-08-18T13:43:05;4.30;;;3.90;;
51236;SDS011;37312;47.550;18.818;2022-08-18T13:45:32;4.90;;;4.50;;
51236;SDS011;37312;47.550;18.818;2022-08-18T13:47:59;14.57;;;4.10;;
51236;SDS011;37312;47.550;18.818;2022-08-18T13:50:25;6.12;;;3.92;;
51236;SDS011;37312;47.550;18.818;2022-08-18T13:52:51;3.95;;;3.65;;
51236;SDS011;37312;47.550;18.818;2022-08-18T13:55:18;4.43;;;4.03;;
51236;SDS011;37312;47.550;18.818;2022-08-18T13:57:45;4.80;;;3.92;;
51236;SDS011;37312;47.550;18.818;2022-08-18T14:00:16;4.68;;;3.03;;
51236;SDS011;37312;47.550;18.818;2022-08-18T14:02:46;3.78;;;3.45;;
51236;SDS011;37312;47.550;18.818;2022-08-18T14:05:14;10.43;;;3.85;;
51236;SDS011;37312;47.550;18.818;2022-08-18T14:07:41;4.35;;;3.08;;
51236;SDS011;37312;47.550;18.818;2022-08-18T14:10:07;4.78;;;4.25;;
51236;SDS011;37312;47.550;18.818;2022-08-18T14:12:34;3.25;;;2.95;;
51236;SDS011;37312;47.550;18.818;2022-08-18T14:15:03;4.22;;;3.45;;
51236;SDS011;37312;47.550;18.818;2022-08-18T14:17:31;6.95;;;3.35;;
51236;SDS011;37312;47.550;18.818;2022-08-18T14:19:58;4.28;;;3.97;;
51236;SDS011;37312;47.550;18.818;2022-08-18T14:22:43;4.90;;;4.00;;
51236;SDS011;37312;47.550;18.818;2022-08-18T14:25:28;4.32;;;3.92;;
51236;SDS011;37312;47.550;18.818;2022-08-18T14:28:13;6.10;;;4.07;;
51236;SDS011;37312;47.550;18.818;2022-08-18T14:30:43;4.00;;;3.70;;
51236;SDS011;37312;47.550;18.818;2022-08-18T14:33:09;7.28;;;3.87;;
51236;SDS011;37312;47.550;18.818;2022-08-18T14:35:35;4.25;;;3.70;;
51236;SDS011;37312;47.550;18.818;2022-08-18T14:38:02;3.17;;;2.83;;
51236;SDS011;37312;47.550;18.818;2022-08-18T14:40:29;3.50;;;3.22;;
51236;SDS011;37312;47.550;18.818;2022-08-18T14:42:56;5.93;;;3.80;;
51236;SDS011;37312;47.550;18.818;2022-08-18T14:45:23;4.45;;;4.05;;
51236;SDS011;37312;47.550;18.818;2022-08-18T14:47:50;7.43;;;4.72;;
51236;SDS011;37312;47.550;18.818;2022-08-18T14:50:18;8.80;;;4.72;;
51236;SDS011;37312;47.550;18.818;2022-08-18T14:52:45;7.72;;;4.12;;
51236;SDS011;37312;47.550;18.818;2022-08-18T14:55:13;5.78;;;3.53;;
51236;SDS011;37312;47.550;18.818;2022-08-18T14:57:40;12.70;;;4.62;;
51236;SDS011;37312;47.550;18.818;2022-08-18T15:00:08;11.30;;;4.35;;
51236;SDS011;37312;47.550;18.818;2022-08-18T15:02:41;4.60;;;4.30;;
51236;SDS011;37312;47.550;18.818;2022-08-18T15:05:08;3.83;;;3.33;;
51236;SDS011;37312;47.550;18.818;2022-08-18T15:07:36;7.47;;;3.58;;
51236;SDS011;37312;47.550;18.818;2022-08-18T15:10:06;7.07;;;3.87;;
51236;SDS011;37312;47.550;18.818;2022-08-18T15:12:34;3.37;;;3.12;;
51236;SDS011;37312;47.550;18.818;2022-08-18T15:15:00;6.57;;;3.28;;
51236;SDS011;37312;47.550;18.818;2022-08-18T15:17:26;7.45;;;3.53;;
51236;SDS011;37312;47.550;18.818;2022-08-18T15:19:52;6.22;;;3.90;;
51236;SDS011;37312;47.550;18.818;2022-08-18T15:22:18;8.35;;;3.12;;
51236;SDS011;37312;47.550;18.818;2022-08-18T15:25:04;4.20;;;3.80;;
51236;SDS011;37312;47.550;18.818;2022-08-18T15:27:50;3.53;;;3.22;;
51236;SDS011;37312;47.550;18.818;2022-08-18T15:30:17;6.53;;;3.47;;
51236;SDS011;37312;47.550;18.818;2022-08-18T15:32:43;3.60;;;3.03;;
51236;SDS011;37312;47.550;18.818;2022-08-18T15:35:10;6.85;;;3.60;;
51236;SDS011;37312;47.550;18.818;2022-08-18T15:37:37;4.80;;;2.85;;
51236;SDS011;37312;47.550;18.818;2022-08-18T15:42:36;5.40;;;3.28;;
51236;SDS011;37312;47.550;18.818;2022-08-18T15:45:07;3.75;;;3.33;;
51236;SDS011;37312;47.550;18.818;2022-08-18T15:47:33;3.33;;;2.83;;
51236;SDS011;37312;47.550;18.818;2022-08-18T15:50:00;3.10;;;2.85;;
51236;SDS011;37312;47.550;18.818;2022-08-18T15:52:26;4.22;;;2.85;;
51236;SDS011;37312;47.550;18.818;2022-08-18T15:54:52;6.28;;;3.72;;
51236;SDS011;37312;47.550;18.818;2022-08-18T15:57:19;10.57;;;3.28;;
51236;SDS011;37312;47.550;18.818;2022-08-18T15:59:45;8.07;;;3.50;;
51236;SDS011;37312;47.550;18.818;2022-08-18T16:02:11;6.30;;;4.00;;
51236;SDS011;37312;47.550;18.818;2022-08-18T16:04:38;10.80;;;2.80;;
51236;SDS011;37312;47.550;18.818;2022-08-18T16:07:05;3.35;;;3.05;;
51236;SDS011;37312;47.550;18.818;2022-08-18T16:09:31;3.42;;;2.67;;
51236;SDS011;37312;47.550;18.818;2022-08-18T16:11:57;3.55;;;3.25;;
51236;SDS011;37312;47.550;18.818;2022-08-18T16:14:23;5.70;;;3.00;;
51236;SDS011;37312;47.550;18.818;2022-08-18T16:16:49;4.78;;;3.80;;
51236;SDS011;37312;47.550;18.818;2022-08-18T16:19:15;3.30;;;2.85;;
51236;SDS011;37312;47.550;18.818;2022-08-18T16:21:41;4.80;;;3.40;;
51236;SDS011;37312;47.550;18.818;2022-08-18T16:24:08;5.82;;;3.87;;
51236;SDS011;37312;47.550;18.818;2022-08-18T16:26:34;4.97;;;3.55;;
51236;SDS011;37312;47.550;18.818;2022-08-18T16:29:00;3.42;;;3.12;;
51236;SDS011;37312;47.550;18.818;2022-08-18T16:31:26;15.13;;;3.75;;
51236;SDS011;37312;47.550;18.818;2022-08-18T16:33:53;5.95;;;3.83;;
51236;SDS011;37312;47.550;18.818;2022-08-18T16:36:21;3.22;;;2.97;;
51236;SDS011;37312;47.550;18.818;2022-08-18T16:38:50;6.60;;;3.37;;
51236;SDS011;37312;47.550;18.818;2022-08-18T16:41:17;9.43;;;3.85;;
51236;SDS011;37312;47.550;18.818;2022-08-18T16:43:44;3.67;;;3.37;;
51236;SDS011;37312;47.550;18.818;2022-08-18T16:46:18;3.50;;;3.20;;
51236;SDS011;37312;47.550;18.818;2022-08-18T16:48:49;2.58;;;2.37;;
51236;SDS011;37312;47.550;18.818;2022-08-18T16:51:16;2.95;;;2.75;;
51236;SDS011;37312;47.550;18.818;2022-08-18T16:53:46;6.28;;;2.95;;
51236;SDS011;37312;47.550;18.818;2022-08-18T16:56:16;5.22;;;2.95;;
51236;SDS011;37312;47.550;18.818;2022-08-18T16:58:44;2.58;;;2.40;;
51236;SDS011;37312;47.550;18.818;2022-08-18T17:01:29;4.70;;;3.40;;
51236;SDS011;37312;47.550;18.818;2022-08-18T17:04:15;4.28;;;3.08;;
51236;SDS011;37312;47.550;18.818;2022-08-18T17:06:43;3.20;;;2.90;;
51236;SDS011;37312;47.550;18.818;2022-08-18T17:09:10;5.62;;;3.17;;
51236;SDS011;37312;47.550;18.818;2022-08-18T17:11:37;4.53;;;3.80;;
51236;SDS011;37312;47.550;18.818;2022-08-18T17:14:05;4.50;;;3.17;;
51236;SDS011;37312;47.550;18.818;2022-08-18T17:16:33;7.47;;;3.75;;
51236;SDS011;37312;47.550;18.818;2022-08-18T17:19:00;5.37;;;3.95;;
51236;SDS011;37312;47.550;18.818;2022-08-18T17:21:27;3.55;;;2.80;;
51236;SDS011;37312;47.550;18.818;2022-08-18T17:23:55;4.25;;;3.03;;